createdAt,value
2019-03-04T00:00:39.930Z,52.83
2019-03-04T00:03:10.461Z,59.23
2019-03-04T00:05:42.513Z,62.37
2019-03-04T00:08:13.211Z,51.83
2019-03-04T00:10:43.692Z,50.27
2019-03-04T00:13:14.240Z,54.60
2019-03-04T00:15:44.739Z,50.10
2019-03-04T00:18:15.966Z,51.90
2019-03-04T00:20:46.458Z,54.00
2019-03-04T00:23:16.942Z,50.50
2019-03-04T00:25:47.442Z,53.47
2019-03-04T00:28:17.900Z,47.00
2019-03-04T00:30:48.397Z,45.27
2019-03-04T00:33:18.930Z,55.47
2019-03-04T00:35:49.416Z,47.83
2019-03-04T00:38:19.920Z,58.33
2019-03-04T00:40:50.401Z,51.40
2019-03-04T00:43:20.908Z,54.43
2019-03-04T00:45:51.360Z,49.20
2019-03-04T00:48:21.866Z,50.60
2019-03-04T00:50:52.352Z,46.97
2019-03-04T00:53:22.823Z,51.13
2019-03-04T00:55:53.360Z,50.73
2019-03-04T00:58:23.934Z,48.33
2019-03-04T01:00:54.443Z,42.93
2019-03-04T01:03:24.904Z,51.67
2019-03-04T01:05:55.406Z,41.73
2019-03-04T01:08:25.934Z,39.10
2019-03-04T01:10:56.490Z,44.20
2019-03-04T01:13:27.216Z,40.30
2019-03-04T01:15:57.706Z,41.47
2019-03-04T01:18:28.167Z,44.33
2019-03-04T01:20:58.729Z,44.10
2019-03-04T01:23:29.222Z,40.80
2019-03-04T01:25:59.709Z,43.27
2019-03-04T01:28:30.178Z,39.90
2019-03-04T01:31:00.679Z,47.63
2019-03-04T01:33:31.145Z,45.20
2019-03-04T01:36:01.657Z,35.73
2019-03-04T01:38:32.121Z,41.60
2019-03-04T01:41:02.609Z,45.53
2019-03-04T01:43:33.070Z,42.80
2019-03-04T01:46:03.585Z,40.87
2019-03-04T01:48:34.036Z,45.40
2019-03-04T01:51:04.544Z,43.17
2019-03-04T01:53:35.002Z,42.63
2019-03-04T01:56:05.565Z,35.53
2019-03-04T01:58:36.080Z,37.83
2019-03-04T02:01:06.684Z,37.97
2019-03-04T02:03:37.149Z,38.40
2019-03-04T02:06:09.482Z,41.37
2019-03-04T02:08:40.102Z,49.83
2019-03-04T02:11:10.578Z,41.13
2019-03-04T02:13:41.033Z,40.10
2019-03-04T02:16:11.531Z,39.97
2019-03-04T02:18:45.079Z,42.70
2019-03-04T02:21:15.607Z,46.10
2019-03-04T02:23:47.409Z,44.33
2019-03-04T02:26:19.036Z,37.80
2019-03-04T02:28:49.498Z,43.47
2019-03-04T02:31:20.074Z,37.93
2019-03-04T02:33:50.531Z,43.40
2019-03-04T02:36:21.016Z,41.17
2019-03-04T02:38:51.485Z,38.47
2019-03-04T02:41:21.971Z,44.60
2019-03-04T02:43:52.422Z,40.30
2019-03-04T02:46:22.911Z,40.60
2019-03-04T02:48:53.386Z,40.97
2019-03-04T02:51:23.868Z,40.17
2019-03-04T02:53:54.361Z,46.40
2019-03-04T02:56:25.397Z,45.30
2019-03-04T02:58:55.877Z,47.83
2019-03-04T03:01:26.371Z,48.00
2019-03-04T03:03:56.856Z,50.27
2019-03-04T03:06:27.333Z,54.60
2019-03-04T03:08:57.856Z,60.77
2019-03-04T03:11:28.327Z,49.90
2019-03-04T03:13:58.822Z,64.13
2019-03-04T03:16:29.287Z,63.37
2019-03-04T03:18:59.823Z,63.60
2019-03-04T03:21:30.323Z,55.10
2019-03-04T03:24:00.823Z,48.60
2019-03-04T03:26:31.307Z,57.07
2019-03-04T03:29:01.804Z,56.30
2019-03-04T03:31:32.302Z,52.67
2019-03-04T03:34:02.766Z,55.73
2019-03-04T03:36:33.259Z,51.67
2019-03-04T03:39:04.558Z,54.27
2019-03-04T03:41:36.591Z,54.30
2019-03-04T03:44:08.613Z,52.70
2019-03-04T03:46:40.636Z,55.30
2019-03-04T03:49:11.131Z,55.17
2019-03-04T03:51:41.601Z,52.80
2019-03-04T03:54:12.089Z,50.63
2019-03-04T03:56:43.749Z,55.40
2019-03-04T03:59:14.966Z,56.87
2019-03-04T04:01:45.447Z,53.57
2019-03-04T04:04:16.693Z,56.47
2019-03-04T04:06:47.195Z,55.10
2019-03-04T04:09:17.665Z,54.83
2019-03-04T04:11:48.161Z,54.40
2019-03-04T04:14:18.649Z,57.97
2019-03-04T04:16:49.145Z,48.87
2019-03-04T04:19:19.601Z,57.07
2019-03-04T04:21:50.115Z,53.83
2019-03-04T04:24:20.578Z,50.77
2019-03-04T04:26:51.078Z,45.30
2019-03-04T04:29:21.559Z,53.10
2019-03-04T04:31:52.042Z,49.80
2019-03-04T04:34:22.518Z,52.23
2019-03-04T04:36:55.859Z,53.63
2019-03-04T04:39:26.316Z,50.20
2019-03-04T04:41:56.806Z,48.27
2019-03-04T04:44:27.272Z,49.77
2019-03-04T04:46:57.844Z,56.17
2019-03-04T04:49:28.300Z,53.97
2019-03-04T04:51:58.799Z,49.47
2019-03-04T04:54:29.301Z,65.97
2019-03-04T04:56:59.769Z,56.87
2019-03-04T04:59:32.139Z,61.27
2019-03-04T05:02:03.923Z,51.23
2019-03-04T05:04:35.672Z,59.83
2019-03-04T05:07:06.201Z,51.43
2019-03-04T05:09:57.354Z,53.13
2019-03-04T05:12:27.817Z,49.53
2019-03-04T05:14:58.301Z,57.67
2019-03-04T05:17:28.785Z,56.37
2019-03-04T05:19:59.268Z,53.93
2019-03-04T05:22:29.737Z,48.97
2019-03-04T05:25:00.356Z,48.57
2019-03-04T05:27:30.801Z,46.00
2019-03-04T05:30:01.302Z,50.73
2019-03-04T05:32:31.767Z,49.67
2019-03-04T05:35:02.254Z,49.93
2019-03-04T05:37:32.735Z,52.27
2019-03-04T05:40:03.693Z,48.03
2019-03-04T05:42:34.235Z,55.07
2019-03-04T05:45:07.393Z,52.47
2019-03-04T05:47:37.848Z,48.07
2019-03-04T05:50:12.522Z,50.47
2019-03-04T05:52:42.983Z,45.57
2019-03-04T05:55:15.681Z,54.73
2019-03-04T05:57:46.622Z,46.90
2019-03-04T06:00:25.503Z,51.87
2019-03-04T06:03:06.440Z,49.13
2019-03-04T06:05:36.921Z,48.87
2019-03-04T06:08:11.712Z,54.33
2019-03-04T06:10:42.210Z,61.17
2019-03-04T06:13:12.695Z,55.07
2019-03-04T06:15:45.062Z,60.10
2019-03-04T06:18:15.587Z,59.47
2019-03-04T06:20:47.952Z,57.50
2019-03-04T06:23:18.414Z,55.60
2019-03-04T06:25:48.900Z,68.50
2019-03-04T06:28:20.910Z,64.70
2019-03-04T06:30:51.403Z,69.50
2019-03-04T06:33:23.509Z,63.17
2019-03-04T06:35:54.018Z,73.27
2019-03-04T06:38:24.488Z,70.00
2019-03-04T06:40:56.126Z,74.13
2019-03-04T06:43:26.604Z,91.20
2019-03-04T06:45:57.702Z,117.57
2019-03-04T06:48:28.194Z,88.40
2019-03-04T06:50:58.656Z,72.23
2019-03-04T06:53:33.867Z,67.57
2019-03-04T06:56:25.207Z,83.37
2019-03-04T06:59:08.891Z,70.40
2019-03-04T07:01:44.103Z,68.07
2019-03-04T07:04:31.149Z,222.20
2019-03-04T07:07:01.646Z,165.63
2019-03-04T07:09:32.121Z,81.13
2019-03-04T07:12:02.615Z,65.37
2019-03-04T07:14:33.074Z,69.30
2019-03-04T07:17:03.572Z,62.67
2019-03-04T07:19:34.027Z,56.93
2019-03-04T07:22:04.520Z,56.37
2019-03-04T07:24:35.069Z,55.73
2019-03-04T07:27:05.815Z,71.40
2019-03-04T07:29:37.085Z,52.90
2019-03-04T07:32:07.626Z,66.90
2019-03-04T07:34:38.233Z,61.93
2019-03-04T07:37:09.765Z,60.07
2019-03-04T07:39:40.276Z,62.83
2019-03-04T07:42:10.766Z,59.00
2019-03-04T07:44:41.247Z,53.07
2019-03-04T07:47:11.740Z,50.77
2019-03-04T07:49:43.605Z,57.23
2019-03-04T07:52:14.074Z,62.60
2019-03-04T07:54:44.562Z,59.67
2019-03-04T07:57:15.049Z,58.10
2019-03-04T07:59:45.549Z,55.07
2019-03-04T08:02:16.161Z,56.00
2019-03-04T08:04:59.715Z,55.80
2019-03-04T08:07:45.711Z,61.67
2019-03-04T08:10:57.766Z,57.50
2019-03-04T08:13:51.386Z,54.53
2019-03-04T08:16:21.851Z,54.83
2019-03-04T08:18:52.336Z,58.40
2019-03-04T08:21:22.832Z,58.33
2019-03-04T08:23:53.596Z,49.73
2019-03-04T08:26:25.705Z,50.20
2019-03-04T08:28:58.768Z,45.60
2019-03-04T08:31:29.397Z,46.80
2019-03-04T08:34:01.502Z,48.13
2019-03-04T08:36:32.024Z,49.00
2019-03-04T08:39:02.655Z,51.07
2019-03-04T08:41:35.698Z,48.60
2019-03-04T08:44:06.249Z,52.83
2019-03-04T08:46:38.039Z,58.50
2019-03-04T08:49:10.652Z,51.13
2019-03-04T08:51:42.687Z,54.07
2019-03-04T08:54:13.143Z,65.60
2019-03-04T08:56:43.635Z,53.40
2019-03-04T08:59:14.106Z,53.10
2019-03-04T09:01:45.571Z,48.83
2019-03-04T09:04:17.570Z,49.10
2019-03-04T09:06:48.067Z,43.87
2019-03-04T09:09:18.815Z,43.03
2019-03-04T09:11:49.429Z,39.80
2019-03-04T09:14:20.493Z,41.23
2019-03-04T09:16:50.966Z,42.17
2019-03-04T09:19:22.042Z,41.17
2019-03-04T09:21:53.076Z,41.70
2019-03-04T09:24:23.590Z,47.80
2019-03-04T09:26:55.265Z,52.33
2019-03-04T09:29:29.070Z,51.50
2019-03-04T09:32:00.100Z,46.97
2019-03-04T09:34:30.578Z,44.70
2019-03-04T09:37:03.607Z,42.17
2019-03-04T09:39:34.104Z,44.33
2019-03-04T09:42:07.265Z,42.57
2019-03-04T09:44:37.755Z,49.10
2019-03-04T09:47:08.218Z,58.23
2019-03-04T09:49:38.712Z,56.97
2019-03-04T09:52:09.842Z,49.47
2019-03-04T09:54:41.507Z,59.30
2019-03-04T09:57:13.166Z,59.27
2019-03-04T09:59:43.663Z,48.17
2019-03-04T10:02:16.092Z,57.47
2019-03-04T10:05:21.532Z,53.43
2019-03-04T10:07:59.552Z,45.67
2019-03-04T10:11:01.244Z,42.43
2019-03-04T10:14:01.841Z,41.30
2019-03-04T10:16:43.818Z,47.10
2019-03-04T10:19:39.523Z,51.27
2019-03-04T10:22:24.413Z,44.77
2019-03-04T10:25:36.376Z,38.07
2019-03-04T10:28:44.538Z,41.53
2019-03-04T10:31:25.466Z,93.83
2019-03-04T10:34:27.765Z,51.60
2019-03-04T10:37:10.093Z,36.03
2019-03-04T10:40:18.259Z,35.80
2019-03-04T10:43:12.706Z,43.90
2019-03-04T10:45:56.859Z,37.10
2019-03-04T10:48:27.361Z,35.80
2019-03-04T10:50:59.026Z,46.13
2019-03-04T10:53:29.539Z,36.87
2019-03-04T10:56:00.008Z,40.10
2019-03-04T10:58:30.530Z,38.83
2019-03-04T11:01:01.520Z,44.33
2019-03-04T11:03:32.020Z,42.87
2019-03-04T11:06:03.537Z,34.03
2019-03-04T11:08:34.055Z,28.17
2019-03-04T11:11:04.681Z,27.80
2019-03-04T11:13:35.949Z,26.60
2019-03-04T11:16:06.414Z,29.60
2019-03-04T11:18:37.010Z,30.97
2019-03-04T11:21:07.657Z,26.50
2019-03-04T11:23:38.159Z,21.77
2019-03-04T11:26:08.704Z,21.07
2019-03-04T11:28:39.307Z,22.43
2019-03-04T11:31:09.767Z,17.50
2019-03-04T11:33:40.263Z,18.27
2019-03-04T11:36:10.744Z,18.97
2019-03-04T11:38:48.497Z,20.30
2019-03-04T11:41:22.269Z,22.87
2019-03-04T11:43:52.773Z,25.90
2019-03-04T11:46:24.266Z,21.97
2019-03-04T11:48:54.725Z,23.00
2019-03-04T11:51:26.861Z,22.40
2019-03-04T11:53:57.345Z,23.90
2019-03-04T11:56:27.846Z,27.90
2019-03-04T11:58:59.380Z,25.00
2019-03-04T12:01:34.599Z,24.17
2019-03-04T12:04:05.202Z,24.07
2019-03-04T12:06:37.256Z,25.97
2019-03-04T12:09:11.461Z,21.53
2019-03-04T12:11:42.039Z,26.20
2019-03-04T12:14:12.523Z,16.87
2019-03-04T12:16:43.083Z,18.73
2019-03-04T12:19:15.986Z,17.30
2019-03-04T12:21:46.498Z,17.90
2019-03-04T12:24:16.985Z,15.63
2019-03-04T12:26:47.736Z,18.00
2019-03-04T12:29:18.239Z,16.40
2019-03-04T12:31:50.358Z,16.00
2019-03-04T12:34:24.931Z,14.80
2019-03-04T12:36:55.603Z,15.23
2019-03-04T12:39:26.101Z,16.37
2019-03-04T12:41:56.610Z,12.47
2019-03-04T12:44:27.670Z,10.57
2019-03-04T12:46:58.134Z,11.03
2019-03-04T12:49:28.631Z,11.10
2019-03-04T12:51:59.111Z,10.50
2019-03-04T12:54:29.595Z,8.73
2019-03-04T12:57:00.059Z,9.40
2019-03-04T12:59:30.555Z,8.47
2019-03-04T13:02:01.096Z,8.73
2019-03-04T13:04:31.852Z,8.93
2019-03-04T13:07:02.311Z,9.40
2019-03-04T13:09:33.284Z,9.60
2019-03-04T13:12:03.752Z,9.03
2019-03-04T13:14:34.253Z,8.77
2019-03-04T13:17:04.707Z,8.03
2019-03-04T13:19:35.222Z,7.70
2019-03-04T13:22:08.794Z,7.20
2019-03-04T13:24:38.794Z,9.40
2019-03-04T13:27:09.263Z,8.63
2019-03-04T13:29:39.796Z,9.40
2019-03-04T13:32:10.410Z,7.47
2019-03-04T13:34:40.916Z,7.90
2019-03-04T13:37:11.455Z,8.63
2019-03-04T13:39:41.945Z,10.30
2019-03-04T13:42:12.464Z,6.57
2019-03-04T13:44:43.041Z,8.70
2019-03-04T13:47:13.516Z,11.70
2019-03-04T13:49:44.479Z,8.10
2019-03-04T13:52:15.053Z,8.67
2019-03-04T13:54:45.514Z,10.03
2019-03-04T13:57:16.012Z,8.30
2019-03-04T13:59:46.468Z,9.00
2019-03-04T14:02:17.814Z,7.33
2019-03-04T14:04:49.351Z,9.03
2019-03-04T14:07:19.824Z,8.60
2019-03-04T14:09:50.318Z,10.60
2019-03-04T14:12:22.853Z,10.57
2019-03-04T14:14:53.444Z,9.40
2019-03-04T14:17:23.920Z,12.23
2019-03-04T14:19:55.117Z,10.30
2019-03-04T14:22:25.556Z,10.93
2019-03-04T14:24:56.631Z,11.73
2019-03-04T14:27:28.635Z,12.60
2019-03-04T14:30:00.473Z,14.33
2019-03-04T14:32:32.064Z,13.43
2019-03-04T14:35:02.552Z,11.50
2019-03-04T14:37:33.047Z,9.97
2019-03-04T14:40:03.814Z,12.80
2019-03-04T14:42:34.330Z,11.90
2019-03-04T14:45:09.787Z,12.93
2019-03-04T14:47:40.940Z,14.17
2019-03-04T14:50:20.644Z,12.70
2019-03-04T14:52:51.486Z,12.67
2019-03-04T14:55:32.403Z,13.17
2019-03-04T14:58:05.356Z,12.67
2019-03-04T15:00:44.238Z,15.80
2019-03-04T15:03:23.047Z,13.43
2019-03-04T15:05:48.699Z,15.67
2019-03-04T15:08:19.286Z,16.10
2019-03-04T15:10:49.849Z,15.17
2019-03-04T15:13:21.902Z,17.40
2019-03-04T15:16:01.196Z,17.70
2019-03-04T15:18:24.576Z,21.83
2019-03-04T15:20:55.084Z,25.00
2019-03-04T15:23:25.550Z,16.73
2019-03-04T15:25:56.186Z,15.90
2019-03-04T15:28:27.398Z,16.00
2019-03-04T15:31:06.041Z,15.33
2019-03-04T15:33:36.514Z,14.50
2019-03-04T15:36:09.986Z,19.97
2019-03-04T15:38:41.612Z,24.43
2019-03-04T15:41:12.253Z,22.90
2019-03-04T15:43:42.726Z,15.73
2019-03-04T15:46:13.399Z,21.07
2019-03-04T15:48:43.942Z,17.47
2019-03-04T15:51:14.454Z,16.80
2019-03-04T15:53:46.583Z,15.60
2019-03-04T15:56:19.952Z,16.43
2019-03-04T15:58:51.834Z,16.80
2019-03-04T16:01:22.413Z,17.87
2019-03-04T16:03:53.054Z,16.93
2019-03-04T16:06:23.611Z,18.87
2019-03-04T16:08:54.120Z,16.73
2019-03-04T16:11:25.420Z,20.37
2019-03-04T16:13:56.300Z,17.90
2019-03-04T16:16:28.107Z,18.93
2019-03-04T16:18:58.601Z,18.87
2019-03-04T16:21:29.104Z,18.17
2019-03-04T16:23:59.604Z,18.67
2019-03-04T16:26:30.089Z,25.50
2019-03-04T16:29:02.140Z,21.60
2019-03-04T16:31:32.605Z,25.80
2019-03-04T16:34:04.741Z,23.50
2019-03-04T16:36:35.226Z,29.60
2019-03-04T16:39:08.393Z,26.43
2019-03-04T16:41:39.522Z,20.97
2019-03-04T16:44:10.023Z,21.77
2019-03-04T16:46:40.524Z,27.73
2019-03-04T16:49:11.001Z,29.33
2019-03-04T16:51:42.903Z,28.40
2019-03-04T16:54:14.165Z,26.27
2019-03-04T16:56:46.213Z,27.53
2019-03-04T16:59:16.709Z,27.30
2019-03-04T17:01:47.292Z,24.83
2019-03-04T17:04:22.936Z,32.57
2019-03-04T17:06:54.729Z,26.77
2019-03-04T17:09:25.942Z,23.77
2019-03-04T17:11:56.430Z,22.10
2019-03-04T17:14:26.973Z,31.80
2019-03-04T17:16:57.477Z,32.13
2019-03-04T17:19:27.954Z,42.40
2019-03-04T17:21:58.469Z,43.53
2019-03-04T17:24:29.008Z,44.80
2019-03-04T17:26:59.508Z,42.57
2019-03-04T17:29:33.025Z,41.63
2019-03-04T17:32:06.425Z,41.63
2019-03-04T17:34:37.665Z,40.00
2019-03-04T17:37:08.186Z,37.70
2019-03-04T17:39:38.647Z,38.13
2019-03-04T17:42:09.169Z,36.13
2019-03-04T17:44:40.871Z,48.37
2019-03-04T17:47:14.297Z,66.60
2019-03-04T17:49:47.758Z,36.27
2019-03-04T17:52:19.834Z,32.27
2019-03-04T17:54:51.821Z,26.63
2019-03-04T17:57:22.320Z,23.20
2019-03-04T17:59:54.438Z,28.30
2019-03-04T18:02:24.935Z,25.20
2019-03-04T18:04:55.403Z,25.03
2019-03-04T18:07:27.544Z,23.53
2019-03-04T18:09:58.038Z,30.17
2019-03-04T18:12:28.502Z,25.77
2019-03-04T18:14:58.993Z,30.40
2019-03-04T18:17:29.522Z,27.00
2019-03-04T18:20:01.814Z,27.67
2019-03-04T18:22:32.345Z,24.10
2019-03-04T18:25:03.007Z,29.53
2019-03-04T18:27:33.534Z,33.23
2019-03-04T18:30:52.719Z,35.43
2019-03-04T18:34:03.707Z,28.40
2019-03-04T18:37:28.673Z,45.13
2019-03-04T18:40:46.175Z,27.80
2019-03-04T18:43:27.152Z,24.23
2019-03-04T18:46:19.826Z,28.57
2019-03-04T18:49:00.876Z,31.83
2019-03-04T18:51:31.496Z,31.73
2019-03-04T18:54:05.656Z,26.60
2019-03-04T18:56:36.228Z,31.40
2019-03-04T18:59:08.010Z,27.97
2019-03-04T19:01:38.607Z,27.77
2019-03-04T19:04:10.198Z,27.70
2019-03-04T19:06:40.754Z,25.83
2019-03-04T19:09:11.311Z,25.13
2019-03-04T19:11:42.090Z,27.50
2019-03-04T19:14:13.350Z,26.53
2019-03-04T19:16:43.895Z,29.00
2019-03-04T19:19:14.400Z,30.50
2019-03-04T19:21:44.874Z,28.33
2019-03-04T19:24:15.414Z,32.67
2019-03-04T19:26:45.895Z,27.43
2019-03-04T19:29:16.426Z,29.17
2019-03-04T19:31:46.897Z,29.50
2019-03-04T19:34:18.049Z,29.17
2019-03-04T19:36:48.536Z,29.87
2019-03-04T19:39:20.776Z,27.87
2019-03-04T19:41:54.750Z,33.33
2019-03-04T19:44:25.257Z,34.40
2019-03-04T19:46:56.391Z,31.47
2019-03-04T19:49:26.869Z,32.83
2019-03-04T19:51:57.365Z,30.13
2019-03-04T19:54:27.931Z,31.23
2019-03-04T19:56:58.573Z,29.73
2019-03-04T19:59:29.037Z,24.97
2019-03-04T20:01:59.598Z,25.53
2019-03-04T20:04:30.083Z,23.57
2019-03-04T20:07:01.407Z,31.70
2019-03-04T20:09:33.479Z,24.63
2019-03-04T20:12:06.949Z,23.60
2019-03-04T20:14:37.414Z,30.67
2019-03-04T20:17:07.976Z,24.37
2019-03-04T20:19:38.466Z,15.50
2019-03-04T20:22:08.924Z,19.27
2019-03-04T20:24:39.413Z,13.80
2019-03-04T20:27:09.881Z,6.40
2019-03-04T20:29:40.360Z,6.30
2019-03-04T20:32:11.984Z,5.13
2019-03-04T20:34:42.479Z,3.10
2019-03-04T20:37:14.657Z,4.23
2019-03-04T20:39:45.136Z,3.57
2019-03-04T20:42:15.640Z,2.97
2019-03-04T20:44:47.755Z,2.40
2019-03-04T20:47:19.221Z,2.50
2019-03-04T20:49:50.147Z,3.10
2019-03-04T20:52:20.658Z,2.93
2019-03-04T20:54:51.776Z,3.20
2019-03-04T20:57:23.713Z,3.40
2019-03-04T20:59:54.151Z,1.70
2019-03-04T21:02:27.269Z,1.83
2019-03-04T21:04:58.395Z,1.57
2019-03-04T21:07:28.859Z,1.53
2019-03-04T21:10:00.862Z,2.60
2019-03-04T21:12:31.350Z,2.33
2019-03-04T21:15:01.798Z,1.03
2019-03-04T21:17:32.343Z,0.90
2019-03-04T21:20:02.866Z,1.30
2019-03-04T21:22:34.815Z,0.83
2019-03-04T21:25:08.939Z,1.17
2019-03-04T21:27:41.002Z,1.50
2019-03-04T21:30:32.899Z,1.37
2019-03-04T21:33:05.307Z,1.20
2019-03-04T21:36:15.257Z,2.03
2019-03-04T21:38:44.824Z,1.17
2019-03-04T21:41:31.041Z,1.10
2019-03-04T21:44:22.385Z,1.70
2019-03-04T21:47:15.318Z,2.10
2019-03-04T21:49:49.824Z,1.10
2019-03-04T21:52:35.068Z,2.80
2019-03-04T21:55:12.815Z,2.47
2019-03-04T21:57:48.408Z,1.67
2019-03-04T22:00:27.139Z,1.37
2019-03-04T22:03:13.018Z,1.30
2019-03-04T22:05:50.104Z,1.37
2019-03-04T22:08:15.927Z,1.10
2019-03-04T22:10:46.501Z,1.60
2019-03-04T22:13:17.258Z,1.43
2019-03-04T22:15:50.153Z,6.10
2019-03-04T22:18:20.753Z,1.93
2019-03-04T22:20:51.318Z,2.20
2019-03-04T22:23:21.863Z,2.83
2019-03-04T22:26:01.495Z,2.00
2019-03-04T22:28:26.102Z,2.90
2019-03-04T22:30:56.563Z,4.47
2019-03-04T22:33:27.183Z,3.70
2019-03-04T22:35:57.679Z,4.10
2019-03-04T22:38:28.175Z,4.93
2019-03-04T22:40:58.654Z,5.50
2019-03-04T22:43:29.111Z,7.43
2019-03-04T22:45:59.597Z,7.40
2019-03-04T22:48:31.421Z,12.13
2019-03-04T22:51:02.038Z,12.20
2019-03-04T22:53:33.545Z,12.23
2019-03-04T22:56:04.141Z,10.27
2019-03-04T22:58:36.160Z,10.37
2019-03-04T23:01:30.383Z,11.40
2019-03-04T23:04:11.307Z,9.00
2019-03-04T23:07:10.072Z,10.83
2019-03-04T23:09:54.631Z,8.73
2019-03-04T23:12:32.941Z,9.73
2019-03-04T23:15:05.061Z,11.60
2019-03-04T23:17:35.529Z,9.93
2019-03-04T23:20:07.953Z,11.20
2019-03-04T23:22:38.421Z,9.63
2019-03-04T23:25:13.638Z,10.80
2019-03-04T23:27:44.091Z,12.07
2019-03-04T23:30:16.406Z,8.60
2019-03-04T23:32:47.093Z,10.30
2019-03-04T23:35:17.581Z,8.90
2019-03-04T23:37:48.110Z,9.93
2019-03-04T23:40:19.378Z,9.73
2019-03-04T23:42:50.928Z,6.80
2019-03-04T23:45:24.075Z,6.87
2019-03-04T23:47:54.600Z,8.30
2019-03-04T23:50:25.694Z,5.47
2019-03-04T23:52:56.170Z,6.20
2019-03-04T23:55:26.619Z,6.50
2019-03-04T23:57:57.175Z,6.13
